createdAt,value
2019-03-24T00:01:07.635Z,34.30
2019-03-24T00:03:45.383Z,25.63
2019-03-24T00:06:15.933Z,33.53
2019-03-24T00:08:45.700Z,34.53
2019-03-24T00:11:15.477Z,39.13
2019-03-24T00:13:45.220Z,33.23
2019-03-24T00:16:15.246Z,24.83
2019-03-24T00:18:44.982Z,29.33
2019-03-24T00:21:14.764Z,35.37
2019-03-24T00:23:44.531Z,28.17
2019-03-24T00:26:14.290Z,28.80
2019-03-24T00:28:44.096Z,26.37
2019-03-24T00:31:13.870Z,22.53
2019-03-24T00:33:43.629Z,46.40
2019-03-24T00:36:13.362Z,33.00
2019-03-24T00:38:43.146Z,21.97
2019-03-24T00:41:12.949Z,29.43
2019-03-24T00:43:43.332Z,34.73
2019-03-24T00:46:13.078Z,29.33
2019-03-24T00:48:42.804Z,24.77
2019-03-24T00:51:12.579Z,28.63
2019-03-24T00:53:42.332Z,32.27
2019-03-24T00:56:12.092Z,26.07
2019-03-24T00:58:42.012Z,31.17
2019-03-24T01:01:11.850Z,29.13
2019-03-24T01:03:41.584Z,24.20
2019-03-24T01:06:11.456Z,18.83
2019-03-24T01:08:41.200Z,20.90
2019-03-24T01:11:10.943Z,29.37
2019-03-24T01:13:40.720Z,34.97
2019-03-24T01:16:10.468Z,23.10
2019-03-24T01:18:40.212Z,22.57
2019-03-24T01:21:09.953Z,29.83
2019-03-24T01:23:39.747Z,30.97
2019-03-24T01:26:09.476Z,28.43
2019-03-24T01:28:39.235Z,29.63
2019-03-24T01:31:09.024Z,27.27
2019-03-24T01:33:38.752Z,32.40
2019-03-24T01:36:08.566Z,27.77
2019-03-24T01:38:38.296Z,20.57
2019-03-24T01:41:08.201Z,20.17
2019-03-24T01:43:37.928Z,23.63
2019-03-24T01:46:07.692Z,23.43
2019-03-24T01:48:37.432Z,26.47
2019-03-24T01:51:07.179Z,36.50
2019-03-24T01:53:36.944Z,28.27
2019-03-24T01:56:06.701Z,25.13
2019-03-24T01:58:36.473Z,24.03
2019-03-24T02:01:06.381Z,30.47
2019-03-24T02:03:36.129Z,30.90
2019-03-24T02:06:05.905Z,24.53
2019-03-24T02:08:35.662Z,29.43
2019-03-24T02:11:05.468Z,23.93
2019-03-24T02:13:35.213Z,29.37
2019-03-24T02:16:09.295Z,31.43
2019-03-24T02:18:36.437Z,22.63
2019-03-24T02:21:06.195Z,23.80
2019-03-24T02:23:35.928Z,25.33
2019-03-24T02:26:05.940Z,24.60
2019-03-24T02:28:35.691Z,26.50
2019-03-24T02:31:05.434Z,27.60
2019-03-24T02:33:35.183Z,23.37
2019-03-24T02:36:04.923Z,32.00
2019-03-24T02:38:34.694Z,29.73
2019-03-24T02:41:04.461Z,25.73
2019-03-24T02:43:34.330Z,22.03
2019-03-24T02:46:04.289Z,30.00
2019-03-24T02:48:34.061Z,27.13
2019-03-24T02:51:03.813Z,26.47
2019-03-24T02:53:33.626Z,27.53
2019-03-24T02:56:03.450Z,26.50
2019-03-24T02:58:33.211Z,21.27
2019-03-24T03:01:03.228Z,25.17
2019-03-24T03:03:33.049Z,24.20
2019-03-24T03:06:02.812Z,26.93
2019-03-24T03:08:32.524Z,24.67
2019-03-24T03:11:02.298Z,20.10
2019-03-24T03:13:32.019Z,20.90
2019-03-24T03:16:01.889Z,25.30
2019-03-24T03:18:31.654Z,28.03
2019-03-24T03:21:01.424Z,25.77
2019-03-24T03:23:31.169Z,29.10
2019-03-24T03:26:00.886Z,22.80
2019-03-24T03:28:30.629Z,22.43
2019-03-24T03:31:00.367Z,21.87
2019-03-24T03:33:30.154Z,20.83
2019-03-24T03:35:59.979Z,21.80
2019-03-24T03:38:29.705Z,32.93
2019-03-24T03:40:59.421Z,22.33
2019-03-24T03:43:29.165Z,29.43
2019-03-24T03:45:58.926Z,22.43
2019-03-24T03:48:28.637Z,29.10
2019-03-24T03:50:58.384Z,25.53
2019-03-24T03:53:28.197Z,23.47
2019-03-24T03:55:57.940Z,17.47
2019-03-24T03:58:27.678Z,33.57
2019-03-24T04:00:57.409Z,27.53
2019-03-24T04:03:27.205Z,33.17
2019-03-24T04:05:56.921Z,29.07
2019-03-24T04:08:26.649Z,18.60
2019-03-24T04:10:56.369Z,21.57
2019-03-24T04:13:26.142Z,19.87
2019-03-24T04:15:55.872Z,30.50
2019-03-24T04:18:25.638Z,27.03
2019-03-24T04:20:55.365Z,26.90
2019-03-24T04:23:25.082Z,31.73
2019-03-24T04:25:54.814Z,17.80
2019-03-24T04:28:24.516Z,21.10
2019-03-24T04:30:54.305Z,24.93
2019-03-24T04:33:24.040Z,24.90
2019-03-24T04:35:53.853Z,31.60
2019-03-24T04:38:23.807Z,24.47
2019-03-24T04:40:53.531Z,18.30
2019-03-24T04:43:23.281Z,29.03
2019-03-24T04:45:53.011Z,23.17
2019-03-24T04:48:22.752Z,27.67
2019-03-24T04:50:52.503Z,29.57
2019-03-24T04:53:22.325Z,29.23
2019-03-24T04:55:52.155Z,18.10
2019-03-24T04:58:21.934Z,23.67
2019-03-24T05:00:51.861Z,20.57
2019-03-24T05:03:21.583Z,16.80
2019-03-24T05:05:51.338Z,18.10
2019-03-24T05:08:21.356Z,23.83
2019-03-24T05:10:51.109Z,16.73
2019-03-24T05:13:20.900Z,26.60
2019-03-24T05:15:50.652Z,22.77
2019-03-24T05:18:20.609Z,26.27
2019-03-24T05:20:50.390Z,28.37
2019-03-24T05:23:20.205Z,24.23
2019-03-24T05:25:49.955Z,36.03
2019-03-24T05:28:19.779Z,18.63
2019-03-24T05:30:49.627Z,25.97
2019-03-24T05:33:19.380Z,24.60
2019-03-24T05:35:49.163Z,21.17
2019-03-24T05:38:18.883Z,21.17
2019-03-24T05:40:48.783Z,17.30
2019-03-24T05:43:18.564Z,16.83
2019-03-24T05:45:48.285Z,22.07
2019-03-24T05:48:18.000Z,21.23
2019-03-24T05:50:47.764Z,25.87
2019-03-24T05:53:17.491Z,26.60
2019-03-24T05:55:47.304Z,11.57
2019-03-24T05:58:17.073Z,20.47
2019-03-24T06:00:46.844Z,15.73
2019-03-24T06:03:16.547Z,11.60
2019-03-24T06:05:46.263Z,18.77
2019-03-24T06:08:16.027Z,19.73
2019-03-24T06:10:45.767Z,23.20
2019-03-24T06:13:15.524Z,21.47
2019-03-24T06:15:45.311Z,18.23
2019-03-24T06:18:15.063Z,25.43
2019-03-24T06:20:44.816Z,28.27
2019-03-24T06:23:14.561Z,37.97
2019-03-24T06:25:44.265Z,27.20
2019-03-24T06:28:14.019Z,30.00
2019-03-24T06:30:43.776Z,28.80
2019-03-24T06:33:13.580Z,29.27
2019-03-24T06:35:43.341Z,26.73
2019-03-24T06:38:13.087Z,27.17
2019-03-24T06:40:42.865Z,21.63
2019-03-24T06:43:12.643Z,28.77
2019-03-24T06:45:42.352Z,22.13
2019-03-24T06:48:12.183Z,25.80
2019-03-24T06:50:42.039Z,23.93
2019-03-24T06:53:11.781Z,35.07
2019-03-24T06:55:41.785Z,15.83
2019-03-24T06:58:11.583Z,22.47
2019-03-24T07:00:41.467Z,26.40
2019-03-24T07:03:11.312Z,25.07
2019-03-24T07:05:41.055Z,22.37
2019-03-24T07:08:10.799Z,21.93
2019-03-24T07:10:40.564Z,30.93
2019-03-24T07:13:10.202Z,25.80
2019-03-24T07:15:39.972Z,23.77
2019-03-24T07:18:09.813Z,22.87
2019-03-24T07:20:39.651Z,25.60
2019-03-24T07:23:09.377Z,26.47
2019-03-24T07:25:39.135Z,29.50
2019-03-24T07:28:08.860Z,28.33
2019-03-24T07:30:38.610Z,30.83
2019-03-24T07:33:08.357Z,25.17
2019-03-24T07:35:38.509Z,29.77
2019-03-24T07:38:08.249Z,25.27
2019-03-24T07:40:38.066Z,28.17
2019-03-24T07:43:07.835Z,29.17
2019-03-24T07:45:39.612Z,22.47
2019-03-24T07:48:18.653Z,26.33
2019-03-24T07:50:40.395Z,31.33
2019-03-24T07:53:11.114Z,21.73
2019-03-24T07:55:41.127Z,18.33
2019-03-24T07:58:10.835Z,25.90
2019-03-24T08:00:40.613Z,74.23
2019-03-24T08:03:10.331Z,25.50
2019-03-24T08:05:40.064Z,24.13
2019-03-24T08:08:09.908Z,23.80
2019-03-24T08:10:39.603Z,25.70
2019-03-24T08:13:09.327Z,34.35
2019-03-24T08:15:41.924Z,23.00
2019-03-24T08:18:11.644Z,16.03
2019-03-24T08:20:41.420Z,21.67
2019-03-24T08:23:11.189Z,26.43
2019-03-24T08:25:40.968Z,24.47
2019-03-24T08:28:10.721Z,26.20
2019-03-24T08:30:40.472Z,26.00
2019-03-24T08:33:10.248Z,22.73
2019-03-24T08:35:40.087Z,21.50
2019-03-24T08:38:09.851Z,25.20
2019-03-24T08:40:39.576Z,20.17
2019-03-24T08:43:09.328Z,20.10
2019-03-24T08:45:39.191Z,26.90
2019-03-24T08:48:08.924Z,30.47
2019-03-24T08:50:38.677Z,26.77
2019-03-24T08:53:08.408Z,16.67
2019-03-24T08:55:38.168Z,60.47
2019-03-24T08:58:07.908Z,59.97
2019-03-24T09:00:37.672Z,24.57
2019-03-24T09:03:07.491Z,24.63
2019-03-24T09:05:37.269Z,26.87
2019-03-24T09:08:07.015Z,20.67
2019-03-24T09:10:36.713Z,29.13
2019-03-24T09:13:06.443Z,27.37
2019-03-24T09:15:36.187Z,22.33
2019-03-24T09:18:05.960Z,25.30
2019-03-24T09:20:41.533Z,19.77
2019-03-24T09:23:07.101Z,34.47
2019-03-24T09:25:37.023Z,23.53
2019-03-24T09:28:09.150Z,17.13
2019-03-24T09:30:39.318Z,21.50
2019-03-24T09:33:09.080Z,21.27
2019-03-24T09:35:38.820Z,33.97
2019-03-24T09:38:08.619Z,24.90
2019-03-24T09:40:38.378Z,25.97
2019-03-24T09:43:08.213Z,23.33
2019-03-24T09:45:40.028Z,25.77
2019-03-24T09:48:09.782Z,19.50
2019-03-24T09:50:39.544Z,26.80
2019-03-24T09:53:09.371Z,23.00
2019-03-24T09:55:39.147Z,31.97
2019-03-24T09:58:08.960Z,22.50
2019-03-24T10:00:38.668Z,24.53
2019-03-24T10:03:08.460Z,25.60
2019-03-24T10:05:38.215Z,23.37
2019-03-24T10:08:07.983Z,32.10
2019-03-24T10:10:37.704Z,24.50
2019-03-24T10:13:07.536Z,27.07
2019-03-24T10:15:37.258Z,26.37
2019-03-24T10:18:07.006Z,23.00
2019-03-24T10:20:36.768Z,31.00
2019-03-24T10:23:06.524Z,23.67
2019-03-24T10:25:36.326Z,23.20
2019-03-24T10:28:06.105Z,22.47
2019-03-24T10:30:35.837Z,20.27
2019-03-24T10:33:05.580Z,17.20
2019-03-24T10:35:35.304Z,32.53
2019-03-24T10:38:05.061Z,25.47
2019-03-24T10:40:34.800Z,30.03
2019-03-24T10:43:04.575Z,45.87
2019-03-24T10:45:34.332Z,21.77
2019-03-24T10:48:04.043Z,20.97
2019-03-24T10:50:33.807Z,23.23
2019-03-24T10:53:03.571Z,16.33
2019-03-24T10:55:33.340Z,21.00
2019-03-24T10:58:03.094Z,14.27
2019-03-24T11:00:40.840Z,21.43
2019-03-24T11:03:11.215Z,24.77
2019-03-24T11:05:40.969Z,19.20
2019-03-24T11:08:10.774Z,19.43
2019-03-24T11:10:40.536Z,21.67
2019-03-24T11:13:10.569Z,22.27
2019-03-24T11:15:43.664Z,14.43
2019-03-24T11:18:13.883Z,15.63
2019-03-24T11:20:44.087Z,19.93
2019-03-24T11:23:14.012Z,18.40
2019-03-24T11:25:44.155Z,11.77
2019-03-24T11:28:14.193Z,11.83
2019-03-24T11:30:44.186Z,15.53
2019-03-24T11:33:14.215Z,18.57
2019-03-24T11:35:44.464Z,19.03
2019-03-24T11:38:14.525Z,13.70
2019-03-24T11:40:44.364Z,15.47
2019-03-24T11:43:14.582Z,12.30
2019-03-24T11:45:44.582Z,13.70
2019-03-24T11:48:14.727Z,14.37
2019-03-24T11:50:44.839Z,14.30
2019-03-24T11:53:14.866Z,16.50
2019-03-24T11:55:45.041Z,11.00
2019-03-24T11:58:15.047Z,12.13
2019-03-24T12:00:45.056Z,7.57
2019-03-24T12:03:15.195Z,8.53
2019-03-24T12:05:45.118Z,9.23
2019-03-24T12:08:15.079Z,13.87
2019-03-24T12:10:45.095Z,9.53
2019-03-24T12:13:14.942Z,10.80
2019-03-24T12:15:44.776Z,13.00
2019-03-24T12:18:14.547Z,12.63
2019-03-24T12:20:44.319Z,12.77
2019-03-24T12:23:14.051Z,12.23
2019-03-24T12:25:43.807Z,9.40
2019-03-24T12:28:13.568Z,10.50
2019-03-24T12:30:43.331Z,8.47
2019-03-24T12:33:13.155Z,11.10
2019-03-24T12:35:42.907Z,11.97
2019-03-24T12:38:12.655Z,12.47
2019-03-24T12:40:42.417Z,13.73
2019-03-24T12:43:19.521Z,11.57
2019-03-24T12:45:43.646Z,9.77
2019-03-24T12:48:13.418Z,8.63
2019-03-24T12:50:43.207Z,12.07
2019-03-24T12:53:13.689Z,9.20
2019-03-24T12:55:43.427Z,11.70
2019-03-24T12:58:13.182Z,6.83
2019-03-24T13:00:43.035Z,8.83
2019-03-24T13:03:12.785Z,8.23
2019-03-24T13:05:42.544Z,11.13
2019-03-24T13:08:13.754Z,11.03
2019-03-24T13:10:44.267Z,10.40
2019-03-24T13:13:14.160Z,8.47
2019-03-24T13:15:44.038Z,9.43
2019-03-24T13:18:13.850Z,8.60
2019-03-24T13:20:43.568Z,6.90
2019-03-24T13:23:13.306Z,9.33
2019-03-24T13:25:43.084Z,8.63
2019-03-24T13:28:12.827Z,9.20
2019-03-24T13:30:43.395Z,10.03
2019-03-24T13:33:13.182Z,7.13
2019-03-24T13:35:43.108Z,9.50
2019-03-24T13:38:12.855Z,6.20
2019-03-24T13:40:42.623Z,7.70
2019-03-24T13:43:12.408Z,8.80
2019-03-24T13:45:42.166Z,8.80
2019-03-24T13:48:11.916Z,6.87
2019-03-24T13:50:41.694Z,10.30
2019-03-24T13:53:11.423Z,8.90
2019-03-24T13:55:41.154Z,10.37
2019-03-24T13:58:12.204Z,6.60
2019-03-24T14:00:42.157Z,7.50
2019-03-24T14:03:11.902Z,9.77
2019-03-24T14:05:42.053Z,7.87
2019-03-24T14:08:30.631Z,10.03
2019-03-24T14:11:00.387Z,8.07
2019-03-24T14:13:30.208Z,10.33
2019-03-24T14:16:00.077Z,7.33
2019-03-24T14:18:29.932Z,11.50
2019-03-24T14:20:59.656Z,8.30
2019-03-24T14:23:29.415Z,7.60
2019-03-24T14:25:59.244Z,10.83
2019-03-24T14:28:29.080Z,11.20
2019-03-24T14:30:58.829Z,8.93
2019-03-24T14:33:28.660Z,5.70
2019-03-24T14:35:58.465Z,8.67
2019-03-24T14:38:28.284Z,8.47
2019-03-24T14:40:58.033Z,9.27
2019-03-24T14:43:27.823Z,9.00
2019-03-24T14:45:57.806Z,8.90
2019-03-24T14:48:27.708Z,9.27
2019-03-24T14:50:57.513Z,7.80
2019-03-24T14:53:27.370Z,8.90
2019-03-24T14:55:57.174Z,6.87
2019-03-24T14:58:26.920Z,10.67
2019-03-24T15:00:56.729Z,9.07
2019-03-24T15:03:26.493Z,8.57
2019-03-24T15:05:56.282Z,6.83
2019-03-24T15:08:26.036Z,7.60
2019-03-24T15:10:55.793Z,12.27
2019-03-24T15:13:25.661Z,7.87
2019-03-24T15:15:55.417Z,4.97
2019-03-24T15:18:25.135Z,5.60
2019-03-24T15:21:05.208Z,7.70
2019-03-24T15:23:26.311Z,7.33
2019-03-24T15:25:56.061Z,8.60
2019-03-24T15:28:25.929Z,6.23
2019-03-24T15:30:55.751Z,8.47
2019-03-24T15:33:25.599Z,10.00
2019-03-24T15:35:55.759Z,8.80
2019-03-24T15:38:25.565Z,12.23
2019-03-24T15:40:55.860Z,15.57
2019-03-24T15:43:25.697Z,8.77
2019-03-24T15:45:55.672Z,9.23
2019-03-24T15:48:25.450Z,10.07
2019-03-24T15:50:55.285Z,11.60
2019-03-24T15:53:25.048Z,10.83
2019-03-24T15:55:54.850Z,8.93
2019-03-24T15:58:24.689Z,11.93
2019-03-24T16:00:54.421Z,9.27
2019-03-24T16:03:24.211Z,11.60
2019-03-24T16:05:56.280Z,8.50
2019-03-24T16:08:25.316Z,12.00
2019-03-24T16:10:55.069Z,16.23
2019-03-24T16:13:24.882Z,9.20
2019-03-24T16:15:54.608Z,10.23
2019-03-24T16:18:24.424Z,10.07
2019-03-24T16:20:54.231Z,12.37
2019-03-24T16:23:23.988Z,9.97
2019-03-24T16:25:55.744Z,12.97
2019-03-24T16:28:25.617Z,17.33
2019-03-24T16:30:55.399Z,13.13
2019-03-24T16:33:25.237Z,14.50
2019-03-24T16:35:55.019Z,16.97
2019-03-24T16:38:24.747Z,12.87
2019-03-24T16:40:54.520Z,14.63
2019-03-24T16:43:24.276Z,15.53
2019-03-24T16:45:54.041Z,11.70
2019-03-24T16:48:23.767Z,13.90
2019-03-24T16:50:53.552Z,16.60
2019-03-24T16:53:24.263Z,14.00
2019-03-24T16:55:54.095Z,20.17
2019-03-24T16:58:23.968Z,14.67
2019-03-24T17:00:53.737Z,14.73
2019-03-24T17:03:23.497Z,16.10
2019-03-24T17:05:53.672Z,15.20
2019-03-24T17:08:23.455Z,17.60
2019-03-24T17:10:53.212Z,16.23
2019-03-24T17:13:22.957Z,18.97
2019-03-24T17:15:52.749Z,22.53
2019-03-24T17:18:22.553Z,16.63
2019-03-24T17:20:52.324Z,17.57
2019-03-24T17:23:22.109Z,16.43
2019-03-24T17:25:51.952Z,24.33
2019-03-24T17:28:21.752Z,12.77
2019-03-24T17:30:51.530Z,20.83
2019-03-24T17:33:21.348Z,13.10
2019-03-24T17:35:51.136Z,13.93
2019-03-24T17:38:20.867Z,16.20
2019-03-24T17:40:50.629Z,22.60
2019-03-24T17:43:20.384Z,15.60
2019-03-24T17:45:50.139Z,17.30
2019-03-24T17:48:19.921Z,21.73
2019-03-24T17:50:49.688Z,20.03
2019-03-24T17:53:19.455Z,16.50
2019-03-24T17:55:49.217Z,16.83
2019-03-24T17:58:18.939Z,13.60
2019-03-24T18:00:50.858Z,17.63
2019-03-24T18:03:20.581Z,21.10
2019-03-24T18:05:50.341Z,16.37
2019-03-24T18:08:20.095Z,16.90
2019-03-24T18:10:49.944Z,15.67
2019-03-24T18:13:19.807Z,20.43
2019-03-24T18:15:49.575Z,14.10
2019-03-24T18:18:19.420Z,15.40
2019-03-24T18:20:49.176Z,19.33
2019-03-24T18:23:18.968Z,20.83
2019-03-24T18:25:48.807Z,13.87
2019-03-24T18:28:18.693Z,14.87
2019-03-24T18:30:48.492Z,18.30
2019-03-24T18:33:18.733Z,20.20
2019-03-24T18:35:48.900Z,22.00
2019-03-24T18:38:18.673Z,12.53
2019-03-24T18:40:48.535Z,12.57
2019-03-24T18:43:18.317Z,20.07
2019-03-24T18:45:48.161Z,12.97
2019-03-24T18:48:17.996Z,15.93
2019-03-24T18:50:47.689Z,15.33
2019-03-24T18:53:17.448Z,13.23
2019-03-24T18:55:47.245Z,14.17
2019-03-24T18:58:16.960Z,16.87
2019-03-24T19:00:46.722Z,14.43
2019-03-24T19:03:16.461Z,18.87
2019-03-24T19:05:46.244Z,21.07
2019-03-24T19:08:16.040Z,13.43
2019-03-24T19:10:45.783Z,13.17
2019-03-24T19:13:16.080Z,14.03
2019-03-24T19:15:45.836Z,15.90
2019-03-24T19:18:15.616Z,19.93
2019-03-24T19:20:45.351Z,18.93
2019-03-24T19:23:15.176Z,14.97
2019-03-24T19:25:45.002Z,17.13
2019-03-24T19:28:14.760Z,15.93
2019-03-24T19:30:44.548Z,15.53
2019-03-24T19:33:14.376Z,12.90
2019-03-24T19:35:44.125Z,13.03
2019-03-24T19:38:13.888Z,12.70
2019-03-24T19:40:43.722Z,18.17
2019-03-24T19:43:13.518Z,17.07
2019-03-24T19:45:43.239Z,15.07
2019-03-24T19:48:13.023Z,16.10
2019-03-24T19:50:42.956Z,20.33
2019-03-24T19:53:12.777Z,13.57
2019-03-24T19:55:42.632Z,14.37
2019-03-24T19:58:12.365Z,17.97
2019-03-24T20:00:42.230Z,18.17
2019-03-24T20:03:11.989Z,21.63
2019-03-24T20:05:41.751Z,17.87
2019-03-24T20:08:11.829Z,18.67
2019-03-24T20:10:41.746Z,13.03
2019-03-24T20:13:11.578Z,12.80
2019-03-24T20:15:41.407Z,11.63
2019-03-24T20:18:11.223Z,14.37
2019-03-24T20:20:40.984Z,16.50
2019-03-24T20:23:11.057Z,17.83
2019-03-24T20:25:40.929Z,11.97
2019-03-24T20:28:10.670Z,14.17
2019-03-24T20:30:40.476Z,20.40
2019-03-24T20:33:10.219Z,13.73
2019-03-24T20:35:40.367Z,12.77
2019-03-24T20:38:10.357Z,9.37
2019-03-24T20:40:40.357Z,14.23
2019-03-24T20:43:10.288Z,14.43
2019-03-24T20:45:40.157Z,11.17
2019-03-24T20:48:09.886Z,17.50
2019-03-24T20:50:39.647Z,17.77
2019-03-24T20:53:18.067Z,11.40
2019-03-24T20:55:41.054Z,9.53
2019-03-24T20:58:11.032Z,14.20
2019-03-24T21:00:41.588Z,16.33
2019-03-24T21:03:11.873Z,12.87
2019-03-24T21:05:41.735Z,15.13
2019-03-24T21:08:11.467Z,11.93
2019-03-24T21:10:41.234Z,13.60
2019-03-24T21:13:10.954Z,10.63
2019-03-24T21:15:40.738Z,13.77
2019-03-24T21:18:10.560Z,14.57
2019-03-24T21:20:40.405Z,11.63
2019-03-24T21:23:10.157Z,13.40
2019-03-24T21:25:39.983Z,9.33
2019-03-24T21:28:09.747Z,11.10
2019-03-24T21:30:40.749Z,15.17
2019-03-24T21:33:10.487Z,13.40
2019-03-24T21:35:40.272Z,12.17
2019-03-24T21:38:09.999Z,13.33
2019-03-24T21:40:39.742Z,10.10
2019-03-24T21:43:09.511Z,9.70
2019-03-24T21:45:39.238Z,17.17
2019-03-24T21:48:09.000Z,11.13
2019-03-24T21:50:38.740Z,10.63
2019-03-24T21:53:08.510Z,14.53
2019-03-24T21:55:38.272Z,8.80
2019-03-24T21:58:08.024Z,15.40
2019-03-24T22:00:39.014Z,16.37
2019-03-24T22:03:08.936Z,8.53
2019-03-24T22:05:38.784Z,13.43
2019-03-24T22:08:08.531Z,11.53
2019-03-24T22:10:38.303Z,12.00
2019-03-24T22:13:08.132Z,11.73
2019-03-24T22:15:37.904Z,15.50
2019-03-24T22:18:08.003Z,18.83
2019-03-24T22:20:48.416Z,19.63
2019-03-24T22:23:09.206Z,14.77
2019-03-24T22:25:38.847Z,20.53
2019-03-24T22:28:08.623Z,14.07
2019-03-24T22:30:38.475Z,16.30
2019-03-24T22:33:08.220Z,14.17
2019-03-24T22:35:37.946Z,22.27
2019-03-24T22:38:07.734Z,12.40
2019-03-24T22:40:37.539Z,12.00
2019-03-24T22:43:07.271Z,18.03
2019-03-24T22:45:37.035Z,14.93
2019-03-24T22:48:06.784Z,18.57
2019-03-24T22:50:36.627Z,13.87
2019-03-24T22:53:06.370Z,18.20
2019-03-24T22:55:36.225Z,16.83
2019-03-24T22:58:05.939Z,14.07
2019-03-24T23:00:52.245Z,13.43
2019-03-24T23:03:24.777Z,11.60
2019-03-24T23:05:53.480Z,17.90
2019-03-24T23:08:23.337Z,17.77
2019-03-24T23:10:53.084Z,17.60
2019-03-24T23:13:22.862Z,13.00
2019-03-24T23:15:52.588Z,14.73
2019-03-24T23:18:22.320Z,10.47
2019-03-24T23:20:52.191Z,18.43
2019-03-24T23:23:21.909Z,18.57
2019-03-24T23:25:51.659Z,12.60
2019-03-24T23:28:21.377Z,16.10
2019-03-24T23:30:51.167Z,17.70
2019-03-24T23:33:20.916Z,12.47
2019-03-24T23:35:50.664Z,14.70
2019-03-24T23:38:20.447Z,14.83
2019-03-24T23:40:50.111Z,15.87
2019-03-24T23:43:19.864Z,18.10
2019-03-24T23:45:49.687Z,7.23
2019-03-24T23:48:19.427Z,10.43
2019-03-24T23:50:49.194Z,14.43
2019-03-24T23:53:18.915Z,12.33
2019-03-24T23:55:48.740Z,16.30
2019-03-24T23:58:18.529Z,15.40
